sensor_id;sensor_type;location;lat;lon;timestamp;temperature;humidity
20428;DHT22;10373;49.768;18.302;2022-08-24T00:01:17;19.40;99.90
20428;DHT22;10373;49.768;18.302;2022-08-24T00:03:43;19.40;99.90
20428;DHT22;10373;49.768;18.302;2022-08-24T00:06:12;19.40;99.90
20428;DHT22;10373;49.768;18.302;2022-08-24T00:08:38;19.40;99.90
20428;DHT22;10373;49.768;18.302;2022-08-24T00:11:05;19.40;99.90
20428;DHT22;10373;49.768;18.302;2022-08-24T00:13:32;19.50;99.90
20428;DHT22;10373;49.768;18.302;2022-08-24T00:15:57;19.40;99.90
20428;DHT22;10373;49.768;18.302;2022-08-24T00:18:23;19.40;99.90
20428;DHT22;10373;49.768;18.302;2022-08-24T00:20:50;19.40;99.90
20428;DHT22;10373;49.768;18.302;2022-08-24T00:23:16;19.40;99.90
20428;DHT22;10373;49.768;18.302;2022-08-24T00:25:42;19.30;99.90
20428;DHT22;10373;49.768;18.302;2022-08-24T00:28:08;19.30;99.90
20428;DHT22;10373;49.768;18.302;2022-08-24T00:30:34;19.20;99.90
20428;DHT22;10373;49.768;18.302;2022-08-24T00:33:00;19.10;99.90
20428;DHT22;10373;49.768;18.302;2022-08-24T00:35:27;19.10;99.90
20428;DHT22;10373;49.768;18.302;2022-08-24T00:37:53;19.10;99.90
20428;DHT22;10373;49.768;18.302;2022-08-24T00:40:24;19.20;99.90
20428;DHT22;10373;49.768;18.302;2022-08-24T00:42:51;19.20;99.90
20428;DHT22;10373;49.768;18.302;2022-08-24T00:45:18;19.30;99.90
20428;DHT22;10373;49.768;18.302;2022-08-24T00:47:58;19.30;99.90
20428;DHT22;10373;49.768;18.302;2022-08-24T00:50:46;19.20;99.90
20428;DHT22;10373;49.768;18.302;2022-08-24T00:53:30;19.20;99.90
20428;DHT22;10373;49.768;18.302;2022-08-24T00:56:01;19.30;99.90
20428;DHT22;10373;49.768;18.302;2022-08-24T00:58:33;19.30;99.90
20428;DHT22;10373;49.768;18.302;2022-08-24T01:01:03;19.30;99.90
20428;DHT22;10373;49.768;18.302;2022-08-24T01:03:29;19.30;99.90
20428;DHT22;10373;49.768;18.302;2022-08-24T01:05:56;19.30;99.90
20428;DHT22;10373;49.768;18.302;2022-08-24T01:08:23;19.40;99.90
20428;DHT22;10373;49.768;18.302;2022-08-24T01:11:01;19.40;99.90
20428;DHT22;10373;49.768;18.302;2022-08-24T01:13:28;19.40;99.90
20428;DHT22;10373;49.768;18.302;2022-08-24T01:15:58;19.40;99.90
20428;DHT22;10373;49.768;18.302;2022-08-24T01:18:24;19.50;99.90
20428;DHT22;10373;49.768;18.302;2022-08-24T01:21:49;19.40;99.90
20428;DHT22;10373;49.768;18.302;2022-08-24T01:24:18;19.40;99.90
20428;DHT22;10373;49.768;18.302;2022-08-24T01:26:49;19.50;99.90
20428;DHT22;10373;49.768;18.302;2022-08-24T01:29:19;19.40;99.90
20428;DHT22;10373;49.768;18.302;2022-08-24T01:31:45;19.40;99.90
20428;DHT22;10373;49.768;18.302;2022-08-24T01:34:11;19.40;99.90
20428;DHT22;10373;49.768;18.302;2022-08-24T01:36:45;19.40;99.90
20428;DHT22;10373;49.768;18.302;2022-08-24T01:39:26;19.40;99.90
20428;DHT22;10373;49.768;18.302;2022-08-24T01:41:53;19.40;99.90
20428;DHT22;10373;49.768;18.302;2022-08-24T01:44:21;19.40;99.90
20428;DHT22;10373;49.768;18.302;2022-08-24T01:46:49;19.40;99.90
20428;DHT22;10373;49.768;18.302;2022-08-24T01:49:17;19.40;99.90
20428;DHT22;10373;49.768;18.302;2022-08-24T01:51:43;19.40;99.90
20428;DHT22;10373;49.768;18.302;2022-08-24T01:54:11;19.40;99.90
20428;DHT22;10373;49.768;18.302;2022-08-24T01:56:38;19.40;99.90
20428;DHT22;10373;49.768;18.302;2022-08-24T01:59:05;19.40;99.90
20428;DHT22;10373;49.768;18.302;2022-08-24T02:01:34;19.40;99.90
20428;DHT22;10373;49.768;18.302;2022-08-24T02:04:04;19.40;99.90
20428;DHT22;10373;49.768;18.302;2022-08-24T02:06:30;19.40;99.90
20428;DHT22;10373;49.768;18.302;2022-08-24T02:08:56;19.40;99.90
20428;DHT22;10373;49.768;18.302;2022-08-24T02:11:22;19.40;99.90
20428;DHT22;10373;49.768;18.302;2022-08-24T02:13:47;19.40;99.90
20428;DHT22;10373;49.768;18.302;2022-08-24T02:16:13;19.40;99.90
20428;DHT22;10373;49.768;18.302;2022-08-24T02:18:39;19.40;99.90
20428;DHT22;10373;49.768;18.302;2022-08-24T02:21:10;19.40;99.90
20428;DHT22;10373;49.768;18.302;2022-08-24T02:23:37;19.40;99.90
20428;DHT22;10373;49.768;18.302;2022-08-24T02:26:05;19.40;99.90
20428;DHT22;10373;49.768;18.302;2022-08-24T02:28:31;19.30;99.90
20428;DHT22;10373;49.768;18.302;2022-08-24T02:30:57;19.30;99.90
20428;DHT22;10373;49.768;18.302;2022-08-24T02:33:23;19.30;99.90
20428;DHT22;10373;49.768;18.302;2022-08-24T02:35:50;19.30;99.90
20428;DHT22;10373;49.768;18.302;2022-08-24T02:38:16;19.30;99.90
20428;DHT22;10373;49.768;18.302;2022-08-24T02:40:42;19.30;99.90
20428;DHT22;10373;49.768;18.302;2022-08-24T02:43:09;19.30;99.90
20428;DHT22;10373;49.768;18.302;2022-08-24T02:45:43;19.20;99.90
20428;DHT22;10373;49.768;18.302;2022-08-24T02:48:10;19.20;99.90
20428;DHT22;10373;49.768;18.302;2022-08-24T02:50:40;19.10;99.90
20428;DHT22;10373;49.768;18.302;2022-08-24T02:53:08;19.10;99.90
20428;DHT22;10373;49.768;18.302;2022-08-24T02:55:34;19.10;99.90
20428;DHT22;10373;49.768;18.302;2022-08-24T02:58:00;19.20;99.90
20428;DHT22;10373;49.768;18.302;2022-08-24T03:00:26;19.20;99.90
20428;DHT22;10373;49.768;18.302;2022-08-24T03:02:53;19.30;99.90
20428;DHT22;10373;49.768;18.302;2022-08-24T03:05:20;19.30;99.90
20428;DHT22;10373;49.768;18.302;2022-08-24T03:07:46;19.40;99.90
20428;DHT22;10373;49.768;18.302;2022-08-24T03:10:12;19.40;99.90
20428;DHT22;10373;49.768;18.302;2022-08-24T03:12:39;19.40;99.90
20428;DHT22;10373;49.768;18.302;2022-08-24T03:15:07;19.30;99.90
20428;DHT22;10373;49.768;18.302;2022-08-24T03:17:34;19.30;99.90
20428;DHT22;10373;49.768;18.302;2022-08-24T03:20:00;19.30;99.90
20428;DHT22;10373;49.768;18.302;2022-08-24T03:22:26;19.30;99.90
20428;DHT22;10373;49.768;18.302;2022-08-24T03:24:52;19.30;99.90
20428;DHT22;10373;49.768;18.302;2022-08-24T03:27:18;19.30;99.90
20428;DHT22;10373;49.768;18.302;2022-08-24T03:29:44;19.20;99.90
20428;DHT22;10373;49.768;18.302;2022-08-24T03:32:09;19.10;99.90
20428;DHT22;10373;49.768;18.302;2022-08-24T03:34:35;19.10;99.90
20428;DHT22;10373;49.768;18.302;2022-08-24T03:37:02;19.10;99.90
20428;DHT22;10373;49.768;18.302;2022-08-24T03:39:28;19.10;99.90
20428;DHT22;10373;49.768;18.302;2022-08-24T03:41:54;19.20;99.90
20428;DHT22;10373;49.768;18.302;2022-08-24T03:44:20;19.20;99.90
20428;DHT22;10373;49.768;18.302;2022-08-24T03:46:45;19.30;99.90
20428;DHT22;10373;49.768;18.302;2022-08-24T03:49:11;19.30;99.90
20428;DHT22;10373;49.768;18.302;2022-08-24T03:51:39;19.30;99.90
20428;DHT22;10373;49.768;18.302;2022-08-24T03:54:07;19.40;99.90
20428;DHT22;10373;49.768;18.302;2022-08-24T03:56:33;19.40;99.90
20428;DHT22;10373;49.768;18.302;2022-08-24T03:58:59;19.40;99.90
20428;DHT22;10373;49.768;18.302;2022-08-24T04:01:25;19.40;99.90
20428;DHT22;10373;49.768;18.302;2022-08-24T04:03:51;19.40;99.90
20428;DHT22;10373;49.768;18.302;2022-08-24T04:06:21;19.40;99.90
20428;DHT22;10373;49.768;18.302;2022-08-24T04:08:47;19.40;99.90
20428;DHT22;10373;49.768;18.302;2022-08-24T04:11:16;19.40;99.90
20428;DHT22;10373;49.768;18.302;2022-08-24T04:13:43;19.40;99.90
20428;DHT22;10373;49.768;18.302;2022-08-24T04:16:14;19.40;99.90
20428;DHT22;10373;49.768;18.302;2022-08-24T04:18:40;19.40;99.90
20428;DHT22;10373;49.768;18.302;2022-08-24T04:21:05;19.40;99.90
20428;DHT22;10373;49.768;18.302;2022-08-24T04:23:32;19.40;99.90
20428;DHT22;10373;49.768;18.302;2022-08-24T04:26:02;19.40;99.90
20428;DHT22;10373;49.768;18.302;2022-08-24T04:28:29;19.40;99.90
20428;DHT22;10373;49.768;18.302;2022-08-24T04:30:55;19.40;99.90
20428;DHT22;10373;49.768;18.302;2022-08-24T04:33:21;19.40;99.90
20428;DHT22;10373;49.768;18.302;2022-08-24T04:35:48;19.40;99.90
20428;DHT22;10373;49.768;18.302;2022-08-24T04:38:15;19.40;99.90
20428;DHT22;10373;49.768;18.302;2022-08-24T04:40:43;19.40;99.90
20428;DHT22;10373;49.768;18.302;2022-08-24T04:43:10;19.30;99.90
20428;DHT22;10373;49.768;18.302;2022-08-24T04:45:41;19.30;99.90
20428;DHT22;10373;49.768;18.302;2022-08-24T04:48:07;19.30;99.90
20428;DHT22;10373;49.768;18.302;2022-08-24T04:50:38;19.30;99.90
20428;DHT22;10373;49.768;18.302;2022-08-24T04:53:05;19.40;99.90
20428;DHT22;10373;49.768;18.302;2022-08-24T04:55:33;19.50;99.90
20428;DHT22;10373;49.768;18.302;2022-08-24T04:58:05;19.50;99.90
20428;DHT22;10373;49.768;18.302;2022-08-24T05:00:31;19.50;99.90
20428;DHT22;10373;49.768;18.302;2022-08-24T05:02:56;19.60;99.90
20428;DHT22;10373;49.768;18.302;2022-08-24T05:05:22;19.60;99.90
20428;DHT22;10373;49.768;18.302;2022-08-24T05:07:48;19.60;99.90
20428;DHT22;10373;49.768;18.302;2022-08-24T05:10:14;19.60;99.90
20428;DHT22;10373;49.768;18.302;2022-08-24T05:12:39;19.60;99.90
20428;DHT22;10373;49.768;18.302;2022-08-24T05:15:06;19.60;99.90
20428;DHT22;10373;49.768;18.302;2022-08-24T05:17:31;19.60;99.90
20428;DHT22;10373;49.768;18.302;2022-08-24T05:19:57;19.60;99.90
20428;DHT22;10373;49.768;18.302;2022-08-24T05:22:23;19.60;99.90
20428;DHT22;10373;49.768;18.302;2022-08-24T05:24:49;19.70;99.90
20428;DHT22;10373;49.768;18.302;2022-08-24T05:27:15;19.60;99.90
20428;DHT22;10373;49.768;18.302;2022-08-24T05:29:43;19.70;99.90
20428;DHT22;10373;49.768;18.302;2022-08-24T05:32:09;19.70;99.90
20428;DHT22;10373;49.768;18.302;2022-08-24T05:34:34;19.70;99.90
20428;DHT22;10373;49.768;18.302;2022-08-24T05:37:00;19.80;99.90
20428;DHT22;10373;49.768;18.302;2022-08-24T05:39:26;19.80;99.90
20428;DHT22;10373;49.768;18.302;2022-08-24T05:41:53;19.80;99.90
20428;DHT22;10373;49.768;18.302;2022-08-24T05:44:19;19.80;99.90
20428;DHT22;10373;49.768;18.302;2022-08-24T05:46:45;19.80;99.90
20428;DHT22;10373;49.768;18.302;2022-08-24T05:49:10;19.80;99.90
20428;DHT22;10373;49.768;18.302;2022-08-24T05:51:38;19.80;99.90
20428;DHT22;10373;49.768;18.302;2022-08-24T05:54:04;19.70;99.90
20428;DHT22;10373;49.768;18.302;2022-08-24T05:56:30;19.60;99.90
20428;DHT22;10373;49.768;18.302;2022-08-24T05:58:56;19.70;99.90
20428;DHT22;10373;49.768;18.302;2022-08-24T06:01:24;19.70;99.90
20428;DHT22;10373;49.768;18.302;2022-08-24T06:03:51;19.70;99.90
20428;DHT22;10373;49.768;18.302;2022-08-24T06:06:19;19.70;99.90
20428;DHT22;10373;49.768;18.302;2022-08-24T06:08:47;19.70;99.90
20428;DHT22;10373;49.768;18.302;2022-08-24T06:11:29;19.70;99.90
20428;DHT22;10373;49.768;18.302;2022-08-24T06:14:01;19.70;99.90
20428;DHT22;10373;49.768;18.302;2022-08-24T06:16:28;19.80;99.90
20428;DHT22;10373;49.768;18.302;2022-08-24T06:18:55;19.90;99.90
20428;DHT22;10373;49.768;18.302;2022-08-24T06:21:23;20.00;99.90
20428;DHT22;10373;49.768;18.302;2022-08-24T06:23:50;20.00;99.90
20428;DHT22;10373;49.768;18.302;2022-08-24T06:26:16;20.10;99.90
20428;DHT22;10373;49.768;18.302;2022-08-24T06:29:02;20.20;99.90
20428;DHT22;10373;49.768;18.302;2022-08-24T06:31:29;20.20;99.90
20428;DHT22;10373;49.768;18.302;2022-08-24T06:33:55;20.20;99.90
20428;DHT22;10373;49.768;18.302;2022-08-24T06:36:21;20.20;99.90
20428;DHT22;10373;49.768;18.302;2022-08-24T06:38:46;20.20;99.90
20428;DHT22;10373;49.768;18.302;2022-08-24T06:41:13;20.20;99.90
20428;DHT22;10373;49.768;18.302;2022-08-24T06:43:38;20.20;99.90
20428;DHT22;10373;49.768;18.302;2022-08-24T06:46:05;20.20;99.90
20428;DHT22;10373;49.768;18.302;2022-08-24T06:48:31;20.10;99.90
20428;DHT22;10373;49.768;18.302;2022-08-24T06:50:57;20.10;99.90
20428;DHT22;10373;49.768;18.302;2022-08-24T06:53:23;20.10;99.90
20428;DHT22;10373;49.768;18.302;2022-08-24T06:55:57;20.10;99.90
20428;DHT22;10373;49.768;18.302;2022-08-24T06:58:24;20.00;99.90
20428;DHT22;10373;49.768;18.302;2022-08-24T07:00:51;20.00;99.90
20428;DHT22;10373;49.768;18.302;2022-08-24T07:03:19;20.00;99.90
20428;DHT22;10373;49.768;18.302;2022-08-24T07:05:56;19.90;99.90
20428;DHT22;10373;49.768;18.302;2022-08-24T07:08:22;20.00;99.90
20428;DHT22;10373;49.768;18.302;2022-08-24T07:10:48;19.90;99.90
20428;DHT22;10373;49.768;18.302;2022-08-24T07:13:14;19.90;99.90
20428;DHT22;10373;49.768;18.302;2022-08-24T07:15:41;19.80;99.90
20428;DHT22;10373;49.768;18.302;2022-08-24T07:18:10;19.90;99.90
20428;DHT22;10373;49.768;18.302;2022-08-24T07:20:36;19.90;99.90
20428;DHT22;10373;49.768;18.302;2022-08-24T07:23:06;20.00;99.90
20428;DHT22;10373;49.768;18.302;2022-08-24T07:25:32;20.00;99.90
20428;DHT22;10373;49.768;18.302;2022-08-24T07:27:59;20.00;99.90
20428;DHT22;10373;49.768;18.302;2022-08-24T07:30:26;20.10;99.90
20428;DHT22;10373;49.768;18.302;2022-08-24T07:32:52;20.10;99.90
20428;DHT22;10373;49.768;18.302;2022-08-24T07:35:18;20.20;99.90
20428;DHT22;10373;49.768;18.302;2022-08-24T07:37:44;20.20;99.90
20428;DHT22;10373;49.768;18.302;2022-08-24T07:40:10;20.10;99.90
20428;DHT22;10373;49.768;18.302;2022-08-24T07:42:35;20.10;99.90
20428;DHT22;10373;49.768;18.302;2022-08-24T07:45:02;20.10;99.90
20428;DHT22;10373;49.768;18.302;2022-08-24T07:47:28;20.00;99.90
20428;DHT22;10373;49.768;18.302;2022-08-24T07:49:54;20.00;99.90
20428;DHT22;10373;49.768;18.302;2022-08-24T07:52:19;19.90;99.90
20428;DHT22;10373;49.768;18.302;2022-08-24T07:54:45;19.90;99.90
20428;DHT22;10373;49.768;18.302;2022-08-24T07:57:11;19.90;99.90
20428;DHT22;10373;49.768;18.302;2022-08-24T07:59:36;19.90;99.90
20428;DHT22;10373;49.768;18.302;2022-08-24T08:02:02;20.10;99.90
20428;DHT22;10373;49.768;18.302;2022-08-24T08:04:29;20.10;99.90
20428;DHT22;10373;49.768;18.302;2022-08-24T08:06:56;20.10;99.90
20428;DHT22;10373;49.768;18.302;2022-08-24T08:09:22;20.10;99.90
20428;DHT22;10373;49.768;18.302;2022-08-24T08:11:47;20.00;99.90
20428;DHT22;10373;49.768;18.302;2022-08-24T08:14:14;20.00;99.90
20428;DHT22;10373;49.768;18.302;2022-08-24T08:16:40;20.00;99.90
20428;DHT22;10373;49.768;18.302;2022-08-24T08:19:06;20.00;99.90
20428;DHT22;10373;49.768;18.302;2022-08-24T08:21:31;20.00;99.90
20428;DHT22;10373;49.768;18.302;2022-08-24T08:24:16;20.10;99.90
20428;DHT22;10373;49.768;18.302;2022-08-24T08:26:47;20.10;99.90
20428;DHT22;10373;49.768;18.302;2022-08-24T08:29:15;20.20;99.90
20428;DHT22;10373;49.768;18.302;2022-08-24T08:31:42;20.30;99.90
20428;DHT22;10373;49.768;18.302;2022-08-24T08:34:09;20.30;99.90
20428;DHT22;10373;49.768;18.302;2022-08-24T08:36:37;20.30;99.90
20428;DHT22;10373;49.768;18.302;2022-08-24T08:39:10;20.30;99.90
20428;DHT22;10373;49.768;18.302;2022-08-24T08:44:16;20.20;99.90
20428;DHT22;10373;49.768;18.302;2022-08-24T08:52:12;20.30;99.90
20428;DHT22;10373;49.768;18.302;2022-08-24T08:54:49;20.30;99.90
20428;DHT22;10373;49.768;18.302;2022-08-24T09:00:28;20.40;99.90
20428;DHT22;10373;49.768;18.302;2022-08-24T09:03:25;20.40;99.90
20428;DHT22;10373;49.768;18.302;2022-08-24T09:06:10;20.40;99.90
20428;DHT22;10373;49.768;18.302;2022-08-24T09:17:14;20.30;99.90
20428;DHT22;10373;49.768;18.302;2022-08-24T09:22:20;20.50;99.90
20428;DHT22;10373;49.768;18.302;2022-08-24T09:25:04;20.60;99.90
20428;DHT22;10373;49.768;18.302;2022-08-24T09:30:22;20.70;99.90
20428;DHT22;10373;49.768;18.302;2022-08-24T10:01:10;20.90;99.90
20428;DHT22;10373;49.768;18.302;2022-08-24T10:25:26;21.30;99.90
20428;DHT22;10373;49.768;18.302;2022-08-24T10:30:59;21.30;99.90
20428;DHT22;10373;49.768;18.302;2022-08-24T10:42:32;21.30;99.90
20428;DHT22;10373;49.768;18.302;2022-08-24T10:53:31;21.80;99.90
20428;DHT22;10373;49.768;18.302;2022-08-24T10:56:10;21.80;99.90
20428;DHT22;10373;49.768;18.302;2022-08-24T10:58:43;21.70;99.90
20428;DHT22;10373;49.768;18.302;2022-08-24T11:01:24;21.70;99.90
20428;DHT22;10373;49.768;18.302;2022-08-24T11:03:58;21.60;99.90
20428;DHT22;10373;49.768;18.302;2022-08-24T11:06:28;21.50;99.90
20428;DHT22;10373;49.768;18.302;2022-08-24T11:09:15;21.40;99.90
20428;DHT22;10373;49.768;18.302;2022-08-24T11:11:46;21.40;99.90
20428;DHT22;10373;49.768;18.302;2022-08-24T11:14:25;21.60;99.90
20428;DHT22;10373;49.768;18.302;2022-08-24T11:17:15;21.50;99.90
20428;DHT22;10373;49.768;18.302;2022-08-24T11:19:43;21.40;99.90
20428;DHT22;10373;49.768;18.302;2022-08-24T11:24:54;21.60;99.90
20428;DHT22;10373;49.768;18.302;2022-08-24T11:35:03;21.40;99.90
20428;DHT22;10373;49.768;18.302;2022-08-24T11:37:32;21.30;99.90
20428;DHT22;10373;49.768;18.302;2022-08-24T11:39:59;21.30;99.90
20428;DHT22;10373;49.768;18.302;2022-08-24T11:45:11;21.80;99.90
20428;DHT22;10373;49.768;18.302;2022-08-24T11:50:38;22.50;99.90
20428;DHT22;10373;49.768;18.302;2022-08-24T11:56:12;23.40;99.90
20428;DHT22;10373;49.768;18.302;2022-08-24T12:01:26;24.00;99.90
20428;DHT22;10373;49.768;18.302;2022-08-24T12:09:25;24.40;99.90
20428;DHT22;10373;49.768;18.302;2022-08-24T12:12:02;24.50;99.90
20428;DHT22;10373;49.768;18.302;2022-08-24T12:15:05;24.10;99.90
20428;DHT22;10373;49.768;18.302;2022-08-24T12:20:43;24.00;99.90
20428;DHT22;10373;49.768;18.302;2022-08-24T12:26:00;24.20;99.90
20428;DHT22;10373;49.768;18.302;2022-08-24T12:28:36;24.10;99.90
20428;DHT22;10373;49.768;18.302;2022-08-24T12:37:34;24.30;99.90
20428;DHT22;10373;49.768;18.302;2022-08-24T12:42:53;24.40;99.90
20428;DHT22;10373;49.768;18.302;2022-08-24T12:45:22;24.30;99.90
20428;DHT22;10373;49.768;18.302;2022-08-24T12:59:12;24.20;99.90
20428;DHT22;10373;49.768;18.302;2022-08-24T13:02:02;24.00;99.90
20428;DHT22;10373;49.768;18.302;2022-08-24T13:47:56;24.70;99.90
20428;DHT22;10373;49.768;18.302;2022-08-24T13:50:38;24.40;99.90
20428;DHT22;10373;49.768;18.302;2022-08-24T14:07:13;23.50;99.90
20428;DHT22;10373;49.768;18.302;2022-08-24T14:09:58;23.50;99.90
20428;DHT22;10373;49.768;18.302;2022-08-24T14:18:13;23.50;99.90
20428;DHT22;10373;49.768;18.302;2022-08-24T14:25:44;23.60;99.90
20428;DHT22;10373;49.768;18.302;2022-08-24T14:30:48;23.80;99.90
20428;DHT22;10373;49.768;18.302;2022-08-24T14:33:34;23.90;99.90
20428;DHT22;10373;49.768;18.302;2022-08-24T14:39:26;24.10;99.90
20428;DHT22;10373;49.768;18.302;2022-08-24T14:42:10;24.30;99.90
20428;DHT22;10373;49.768;18.302;2022-08-24T14:48:05;24.40;99.90
20428;DHT22;10373;49.768;18.302;2022-08-24T14:50:58;24.50;99.90
20428;DHT22;10373;49.768;18.302;2022-08-24T14:59:07;24.50;99.90
20428;DHT22;10373;49.768;18.302;2022-08-24T15:01:45;24.70;99.90
20428;DHT22;10373;49.768;18.302;2022-08-24T15:06:54;24.80;99.90
20428;DHT22;10373;49.768;18.302;2022-08-24T15:09:31;24.70;99.90
20428;DHT22;10373;49.768;18.302;2022-08-24T15:23:44;24.40;99.90
20428;DHT22;10373;49.768;18.302;2022-08-24T15:26:23;24.50;99.90
20428;DHT22;10373;49.768;18.302;2022-08-24T15:28:52;24.60;99.90
20428;DHT22;10373;49.768;18.302;2022-08-24T15:31:23;24.50;99.90
20428;DHT22;10373;49.768;18.302;2022-08-24T15:36:21;24.20;99.90
20428;DHT22;10373;49.768;18.302;2022-08-24T15:38:47;24.20;99.90
20428;DHT22;10373;49.768;18.302;2022-08-24T15:46:08;23.90;99.90
20428;DHT22;10373;49.768;18.302;2022-08-24T15:48:34;23.70;99.90
20428;DHT22;10373;49.768;18.302;2022-08-24T15:51:01;23.70;99.90
20428;DHT22;10373;49.768;18.302;2022-08-24T15:53:34;23.70;99.90
20428;DHT22;10373;49.768;18.302;2022-08-24T15:58:44;23.50;99.90
20428;DHT22;10373;49.768;18.302;2022-08-24T16:03:58;23.40;99.90
20428;DHT22;10373;49.768;18.302;2022-08-24T16:12:04;23.30;99.90
20428;DHT22;10373;49.768;18.302;2022-08-24T16:14:54;23.40;99.90
20428;DHT22;10373;49.768;18.302;2022-08-24T16:17:37;23.50;99.90
20428;DHT22;10373;49.768;18.302;2022-08-24T16:20:07;23.50;99.90
20428;DHT22;10373;49.768;18.302;2022-08-24T16:22:39;23.50;99.90
20428;DHT22;10373;49.768;18.302;2022-08-24T16:25:25;23.50;99.90
20428;DHT22;10373;49.768;18.302;2022-08-24T16:27:55;23.40;99.90
20428;DHT22;10373;49.768;18.302;2022-08-24T16:30:44;23.40;99.90
20428;DHT22;10373;49.768;18.302;2022-08-24T16:36:00;23.40;99.90
20428;DHT22;10373;49.768;18.302;2022-08-24T16:38:27;23.40;99.90
20428;DHT22;10373;49.768;18.302;2022-08-24T16:40:56;23.30;99.90
20428;DHT22;10373;49.768;18.302;2022-08-24T16:43:22;23.40;99.90
20428;DHT22;10373;49.768;18.302;2022-08-24T16:45:48;23.30;99.90
20428;DHT22;10373;49.768;18.302;2022-08-24T16:48:14;23.30;99.90
20428;DHT22;10373;49.768;18.302;2022-08-24T16:50:40;23.30;99.90
20428;DHT22;10373;49.768;18.302;2022-08-24T16:53:07;23.10;99.90
20428;DHT22;10373;49.768;18.302;2022-08-24T16:55:34;23.10;99.90
20428;DHT22;10373;49.768;18.302;2022-08-24T16:58:00;23.10;99.90
20428;DHT22;10373;49.768;18.302;2022-08-24T17:00:26;23.10;99.90
20428;DHT22;10373;49.768;18.302;2022-08-24T17:02:53;23.00;99.90
20428;DHT22;10373;49.768;18.302;2022-08-24T17:05:19;22.90;99.90
20428;DHT22;10373;49.768;18.302;2022-08-24T17:07:46;22.80;99.90
20428;DHT22;10373;49.768;18.302;2022-08-24T17:10:14;22.90;99.90
20428;DHT22;10373;49.768;18.302;2022-08-24T17:12:40;22.80;99.90
20428;DHT22;10373;49.768;18.302;2022-08-24T17:15:09;22.80;99.90
20428;DHT22;10373;49.768;18.302;2022-08-24T17:17:36;22.80;99.90
20428;DHT22;10373;49.768;18.302;2022-08-24T17:20:05;22.70;99.90
20428;DHT22;10373;49.768;18.302;2022-08-24T17:22:34;22.70;99.90
20428;DHT22;10373;49.768;18.302;2022-08-24T17:25:00;22.70;99.90
20428;DHT22;10373;49.768;18.302;2022-08-24T17:27:30;22.60;99.90
20428;DHT22;10373;49.768;18.302;2022-08-24T17:30:01;22.60;99.90
20428;DHT22;10373;49.768;18.302;2022-08-24T17:32:27;22.50;99.90
20428;DHT22;10373;49.768;18.302;2022-08-24T17:34:52;22.40;99.90
20428;DHT22;10373;49.768;18.302;2022-08-24T17:37:18;22.40;99.90
20428;DHT22;10373;49.768;18.302;2022-08-24T17:39:44;22.40;99.90
20428;DHT22;10373;49.768;18.302;2022-08-24T17:42:10;22.40;99.90
20428;DHT22;10373;49.768;18.302;2022-08-24T17:44:35;22.40;99.90
20428;DHT22;10373;49.768;18.302;2022-08-24T17:47:03;22.40;99.90
20428;DHT22;10373;49.768;18.302;2022-08-24T17:49:31;22.30;99.90
20428;DHT22;10373;49.768;18.302;2022-08-24T17:51:57;22.30;99.90
20428;DHT22;10373;49.768;18.302;2022-08-24T17:54:23;22.30;99.90
20428;DHT22;10373;49.768;18.302;2022-08-24T17:56:51;22.30;99.90
20428;DHT22;10373;49.768;18.302;2022-08-24T17:59:27;22.30;99.90
20428;DHT22;10373;49.768;18.302;2022-08-24T18:01:59;22.20;99.90
20428;DHT22;10373;49.768;18.302;2022-08-24T18:04:28;22.20;99.90
20428;DHT22;10373;49.768;18.302;2022-08-24T18:06:59;22.10;99.90
20428;DHT22;10373;49.768;18.302;2022-08-24T18:09:34;22.10;99.90
20428;DHT22;10373;49.768;18.302;2022-08-24T18:12:01;22.20;99.90
20428;DHT22;10373;49.768;18.302;2022-08-24T18:14:28;22.20;99.90
20428;DHT22;10373;49.768;18.302;2022-08-24T18:16:57;22.20;99.90
20428;DHT22;10373;49.768;18.302;2022-08-24T18:19:23;22.10;99.90
20428;DHT22;10373;49.768;18.302;2022-08-24T18:21:50;22.10;99.90
20428;DHT22;10373;49.768;18.302;2022-08-24T18:24:16;22.10;99.90
20428;DHT22;10373;49.768;18.302;2022-08-24T18:26:43;22.10;99.90
20428;DHT22;10373;49.768;18.302;2022-08-24T18:29:13;22.10;99.90
20428;DHT22;10373;49.768;18.302;2022-08-24T18:31:40;22.10;99.90
20428;DHT22;10373;49.768;18.302;2022-08-24T18:34:06;22.00;99.90
20428;DHT22;10373;49.768;18.302;2022-08-24T18:36:32;22.00;99.90
20428;DHT22;10373;49.768;18.302;2022-08-24T18:38:58;22.00;99.90
20428;DHT22;10373;49.768;18.302;2022-08-24T18:41:29;22.00;99.90
20428;DHT22;10373;49.768;18.302;2022-08-24T18:43:57;21.90;99.90
20428;DHT22;10373;49.768;18.302;2022-08-24T18:46:24;21.90;99.90
20428;DHT22;10373;49.768;18.302;2022-08-24T18:48:50;21.80;99.90
20428;DHT22;10373;49.768;18.302;2022-08-24T18:51:19;21.80;99.90
20428;DHT22;10373;49.768;18.302;2022-08-24T18:53:45;21.70;99.90
20428;DHT22;10373;49.768;18.302;2022-08-24T18:56:13;21.70;99.90
20428;DHT22;10373;49.768;18.302;2022-08-24T18:58:39;21.70;99.90
20428;DHT22;10373;49.768;18.302;2022-08-24T19:01:05;21.70;99.90
20428;DHT22;10373;49.768;18.302;2022-08-24T19:03:31;21.70;99.90
20428;DHT22;10373;49.768;18.302;2022-08-24T19:05:57;21.70;99.90
20428;DHT22;10373;49.768;18.302;2022-08-24T19:08:23;21.70;99.90
20428;DHT22;10373;49.768;18.302;2022-08-24T19:10:51;21.60;99.90
20428;DHT22;10373;49.768;18.302;2022-08-24T19:13:18;21.70;99.90
20428;DHT22;10373;49.768;18.302;2022-08-24T19:15:45;21.60;99.90
20428;DHT22;10373;49.768;18.302;2022-08-24T19:18:22;21.70;99.90
20428;DHT22;10373;49.768;18.302;2022-08-24T19:20:50;21.70;99.90
20428;DHT22;10373;49.768;18.302;2022-08-24T19:23:26;21.70;99.90
20428;DHT22;10373;49.768;18.302;2022-08-24T19:25:56;21.60;99.90
20428;DHT22;10373;49.768;18.302;2022-08-24T19:28:24;21.70;99.90
20428;DHT22;10373;49.768;18.302;2022-08-24T19:30:55;21.60;99.90
20428;DHT22;10373;49.768;18.302;2022-08-24T19:33:32;21.60;99.90
20428;DHT22;10373;49.768;18.302;2022-08-24T19:36:06;21.70;99.90
20428;DHT22;10373;49.768;18.302;2022-08-24T19:38:31;21.70;99.90
20428;DHT22;10373;49.768;18.302;2022-08-24T19:41:00;21.70;99.90
20428;DHT22;10373;49.768;18.302;2022-08-24T19:43:31;21.70;99.90
20428;DHT22;10373;49.768;18.302;2022-08-24T19:45:57;21.70;99.90
20428;DHT22;10373;49.768;18.302;2022-08-24T19:48:36;21.70;99.90
20428;DHT22;10373;49.768;18.302;2022-08-24T19:51:07;21.70;99.90
20428;DHT22;10373;49.768;18.302;2022-08-24T19:53:37;21.70;99.90
20428;DHT22;10373;49.768;18.302;2022-08-24T19:56:07;21.70;99.90